Pinehurst, Idaho
Current Conditions -  °F | °C
As of 5:49 AM on Saturday 20 Dec 2014 (Local Time) from KMLP Reporting Station
Haze Haze  
Wind Chill: 17°   Ceiling: 200
Heat Index: 25°   Visibility: 1.7mi
Dew Point: 23°   Wind: 7mph
Humidity: 93%   Direction: NA
Pressure: 29.84"   Gusts: NA
Location:  47.54°N, 116.24°W
Report Text: KMLP 201349Z AUTO VRB06KT 1 3/4SM BR OVC002 M04/M05 A2984 RMK AO2 VIS 3/4V4
Loading
Personal Weather Stations






























Interactive Weather Map New forecast layout! Learn more

10-Day Weather Forecast

Advertisements
Track Severe Weather on mobile